Cfl Performer — PHLY — position and weather

sailwx.info

Track history (hours):
 
Tides and Currents Weather Stations Pressure Air Temp Water Temp Dewpoint Dewpoint Depression Visibility Wind Speed Wind Dir Waves Ship Positions

Cfl Performer

Last reported at 2016-Dec-01 10:21 UTC. Time now 2016-Dec-04 12:20 UTC.
Position N 38°19' E 024°34'.

Length 117 m; draft 3.7 m.

Type: Cargo ship. MMSI: 244989000.

Date/timePositionNaut miles runAvg speedWind from/ knotsBaromVisibWave heightAir tempDewpointWater temp
2016-Dec-01 10:21N 38°19' E 024°34'22 7.2
2016-Dec-01 07:15N 37°56' E 024°34'5 7.9
2016-Dec-01 06:33N 37°55' E 024°28'4 0.4
2016-Nov-30 20:31N 37°58' E 024°26'0 0.0
2016-Nov-30 19:33N 37°58' E 024°26'5 4.8
2016-Nov-30 18:33N 37°54' E 024°23'7 6.7
2016-Nov-30 17:33N 37°48' E 024°19'5 4.7
2016-Nov-30 16:33N 37°44' E 024°16'5 4.3
2016-Nov-30 15:24N 37°40' E 024°13'4 4.2
2016-Nov-30 14:23N 37°36' E 024°10'50 6.3
2016-Nov-30 06:26N 36°59' E 023°28'9 8.6
2016-Nov-30 05:24N 36°52' E 023°22'  
Track history (hours):
 
Tides and Currents Weather Stations Pressure Air Temp Water Temp Dewpoint Dewpoint Depression Visibility Wind Speed Wind Dir Waves Ship Positions

Cfl Performer

Last reported at 2016-Dec-01 10:21 UTC. Time now 2016-Dec-04 12:20 UTC.
Position N 38°19' E 024°34'.

Length 117 m; draft 3.7 m.

Type: Cargo ship. MMSI: 244989000.

Date/timePositionNaut miles runAvg speedWind from/ knotsBaromVisibWave heightAir tempDewpointWater temp
2016-Dec-01 10:21N 38°19' E 024°34'22 7.2
2016-Dec-01 07:15N 37°56' E 024°34'5 7.9
2016-Dec-01 06:33N 37°55' E 024°28'4 0.4
2016-Nov-30 20:31N 37°58' E 024°26'0 0.0
2016-Nov-30 19:33N 37°58' E 024°26'5 4.8
2016-Nov-30 18:33N 37°54' E 024°23'7 6.7
2016-Nov-30 17:33N 37°48' E 024°19'5 4.7
2016-Nov-30 16:33N 37°44' E 024°16'5 4.3
2016-Nov-30 15:24N 37°40' E 024°13'4 4.2
2016-Nov-30 14:23N 37°36' E 024°10'50 6.3
2016-Nov-30 06:26N 36°59' E 023°28'9 8.6
2016-Nov-30 05:24N 36°52' E 023°22'  

Dump ship's entire track history